Impacts METAR Board
IDs:

KAEX - Alexandria Intl, LA, US

Updated at: 0700 UTC 22 Oct 2021
Potential Impact None Slight Moderate High
Time 21/19Z 21/20Z 21/21Z 21/22Z 21/23Z 22/00Z 22/01Z 22/02Z 22/03Z 22/04Z 22/05Z 22/06Z 22/07Z
Temp86 88 89 89 83 77 76 73 73 77 76 75 73
Dewpt69 66 66 66 71 69 69 69 69 67 66 66 65
Altim30.07 30.05 30.04 30.03 30.04 30.04 30.06 30.07 30.07 30.07 30.07 30.07 30.06
VIS10 10 10 10 10 10 10 10 10 10 10 10 10
CIG-- -- -- -- 75 -- -- -- -- 43 37 41 --
CoverFEWFEWSCTFEWOVCCLRCLRCLRCLRBKNBKNBKNCLR
FltCatVFRVFRVFRVFRVFRVFRVFRVFRVFRVFRVFRVFRVFR
WX--------------------------
WDir01403030000320030405050
WSpd0 3 5 3 0 0 0 3 0 7 6 6 4
WGst-- -- -- -- -- -- -- -- -- -- -- -- --
Raw hourly METARs
KAEX 211853Z 00000KT 10SM FEW038 30/21 A3007 RMK AO2 SLP186 T03000206
KAEX 211953Z 14003KT 10SM FEW065 31/19 A3005 RMK AO2 SLP178 T03110189
KAEX 212053Z 03005KT 10SM FEW049 SCT060 32/19 A3004 RMK AO2 SLP174 T03170189 56024
KAEX 212153Z 03003KT 10SM FEW050 32/19 A3003 RMK AO2 SLP173 T03170189
KAEX 212253Z 00000KT 10SM OVC075 28/22 A3004 RMK AO2 SLP174 T02830217
KAEX 212353Z 00000KT 10SM CLR 25/21 A3004 RMK AO2 SLP176 T02500206 10317 20250 53003
KAEX 220053Z 00000KT 10SM CLR 24/21 A3006 RMK AO2 SLP181 T02440206
KAEX 220153Z 32003KT 10SM CLR 23/21 A3007 RMK AO2 SLP185 T02280206
KAEX 220253Z 00000KT 10SM CLR 23/21 A3007 RMK AO2 SLP184 T02280206 50007
KAEX 220353Z 03007KT 10SM BKN043 BKN050 25/19 A3007 RMK AO2 SLP187 T02500194
KAEX 220453Z 04006KT 10SM BKN037 24/19 A3007 RMK AO2 SLP186 T02440189
KAEX 220553Z 05006KT 10SM BKN041 24/19 A3007 RMK AO2 SLP184 T02390189 10256 20217 403170167 50000
KAEX 220653Z 05004KT 10SM CLR 23/18 A3006 RMK AO2 SLP182 T02280183



Page loaded:  07:51 UTC  |   12:51 AM Pacific  |   01:51 AM Mountain  |   02:51 AM Central  |   03:51 AM Eastern

 

ADVISORIES

FORECASTS

FORECASTS

OBSERVATIONS

USER TOOLS

ABOUT US